createdAt,value
2018-03-15T00:03:55.074Z,99722
2018-03-15T00:08:58.171Z,99715
2018-03-15T00:14:02.056Z,99708
2018-03-15T00:19:05.356Z,99703
2018-03-15T00:24:08.509Z,99700
2018-03-15T00:29:13.605Z,99701
2018-03-15T00:34:17.128Z,99694
2018-03-15T00:39:20.997Z,99687
2018-03-15T00:44:24.937Z,99683
2018-03-15T00:49:28.799Z,99682
2018-03-15T00:54:33.428Z,99684
2018-03-15T00:59:36.922Z,99686
2018-03-15T01:04:40.424Z,99678
2018-03-15T01:09:44.287Z,99667
2018-03-15T01:14:48.719Z,99657
2018-03-15T01:19:51.808Z,99649
2018-03-15T01:24:54.898Z,99644
2018-03-15T01:29:58.755Z,99633
2018-03-15T01:35:01.855Z,99627
2018-03-15T01:40:04.948Z,99617
2018-03-15T01:45:08.053Z,99615
2018-03-15T01:50:11.442Z,99614
2018-03-15T01:55:14.524Z,99608
2018-03-15T02:00:17.620Z,99594
2018-03-15T02:05:21.696Z,99581
2018-03-15T02:10:25.173Z,99569
2018-03-15T02:15:29.037Z,99561
2018-03-15T02:20:33.276Z,99555
2018-03-15T02:25:36.800Z,99540
2018-03-15T02:30:40.288Z,99530
2018-03-15T02:35:43.441Z,99517
2018-03-15T02:40:47.908Z,99512
2018-03-15T02:45:51.009Z,99502
2018-03-15T02:50:55.082Z,99497
2018-03-15T02:55:58.932Z,99494
2018-03-15T03:01:02.414Z,99489
2018-03-15T03:06:05.497Z,99488
2018-03-15T03:11:08.977Z,99480
2018-03-15T03:16:13.244Z,99473
2018-03-15T03:21:17.104Z,99471
2018-03-15T03:26:20.172Z,99467
2018-03-15T03:31:24.018Z,99457
2018-03-15T03:36:27.873Z,99439
2018-03-15T03:41:31.712Z,99448
2018-03-15T03:46:35.936Z,99448
2018-03-15T03:51:40.176Z,99450
2018-03-15T03:56:43.680Z,99443
2018-03-15T04:01:48.305Z,99429
2018-03-15T04:06:52.505Z,99407
2018-03-15T04:11:55.675Z,99400
2018-03-15T04:17:00.123Z,99387
2018-03-15T04:22:09.507Z,99380
2018-03-15T04:27:13.379Z,99383
2018-03-15T04:32:17.850Z,99379
2018-03-15T04:37:22.054Z,99382
2018-03-15T04:42:26.475Z,99352
2018-03-15T04:47:30.938Z,99350
2018-03-15T04:52:35.370Z,99338
2018-03-15T04:57:39.844Z,99327
2018-03-15T05:02:43.734Z,99311
2018-03-15T05:07:46.816Z,99302
2018-03-15T05:12:51.252Z,99296
2018-03-15T05:17:54.759Z,99302
2018-03-15T05:22:57.840Z,99291
2018-03-15T05:28:02.056Z,99283
2018-03-15T05:33:05.131Z,99290
2018-03-15T05:38:09.583Z,99303
2018-03-15T05:43:14.035Z,99297
2018-03-15T05:48:18.619Z,99289
2018-03-15T05:53:23.049Z,99288
2018-03-15T05:58:27.479Z,99286
2018-03-15T06:03:31.910Z,99275
2018-03-15T06:08:35.973Z,99260
2018-03-15T06:13:39.830Z,99255
2018-03-15T06:18:44.048Z,99275
2018-03-15T06:23:47.844Z,99281
2018-03-15T06:28:52.340Z,99281
2018-03-15T06:33:56.168Z,99286
2018-03-15T06:39:00.764Z,99253
2018-03-15T06:44:05.190Z,99263
2018-03-15T06:49:09.805Z,99236
2018-03-15T06:54:14.243Z,99233
2018-03-15T06:59:18.088Z,99239
2018-03-15T07:04:22.708Z,99242
2018-03-15T07:09:26.911Z,99249
2018-03-15T07:14:30.401Z,99246
2018-03-15T07:19:34.261Z,99248
2018-03-15T07:24:37.753Z,99238
2018-03-15T07:29:40.835Z,99243
2018-03-15T07:34:45.464Z,99245
2018-03-15T07:39:50.085Z,99230
2018-03-15T07:44:54.536Z,99230
2018-03-15T07:49:58.396Z,99230
2018-03-15T07:55:02.858Z,99222
2018-03-15T08:00:05.946Z,99229
2018-03-15T08:05:09.007Z,99236
2018-03-15T08:10:12.090Z,99214
2018-03-15T08:15:16.519Z,99214
2018-03-15T08:20:19.620Z,99211
2018-03-15T08:25:24.048Z,99221
2018-03-15T08:30:28.504Z,99212
2018-03-15T08:35:31.975Z,99188
2018-03-15T08:40:36.624Z,99186
2018-03-15T08:45:39.644Z,99183
2018-03-15T08:50:44.079Z,99183
2018-03-15T08:55:47.149Z,99174
2018-03-15T09:00:50.674Z,99166
2018-03-15T09:05:53.793Z,99149
2018-03-15T09:10:57.244Z,99168
2018-03-15T09:16:00.332Z,99142
2018-03-15T09:21:03.416Z,99158
2018-03-15T09:26:07.256Z,99143
2018-03-15T09:31:11.107Z,99115
2018-03-15T09:36:14.196Z,99121
2018-03-15T09:41:18.081Z,99116
2018-03-15T09:46:21.152Z,99123
2018-03-15T09:51:25.586Z,99113
2018-03-15T09:56:30.027Z,99090
2018-03-15T10:01:34.255Z,99090
2018-03-15T10:06:37.391Z,99105
2018-03-15T10:11:41.621Z,99088
2018-03-15T10:16:45.895Z,99086
2018-03-15T10:21:51.438Z,99080
2018-03-15T10:26:55.879Z,99077
2018-03-15T10:32:00.316Z,99068
2018-03-15T10:37:04.788Z,99071
2018-03-15T10:42:09.380Z,99061
2018-03-15T10:47:13.824Z,99069
2018-03-15T10:52:17.311Z,99050
2018-03-15T10:57:20.792Z,99054
2018-03-15T11:02:30.141Z,99040
2018-03-15T11:07:39.575Z,99035
2018-03-15T11:12:43.787Z,99015
2018-03-15T11:17:48.228Z,99035
2018-03-15T11:22:52.658Z,99024
2018-03-15T11:27:55.739Z,99018
2018-03-15T11:32:59.248Z,99010
2018-03-15T11:38:03.105Z,99017
2018-03-15T11:43:07.326Z,99011
2018-03-15T11:48:11.754Z,98996
2018-03-15T11:53:15.236Z,98996
2018-03-15T11:58:19.864Z,99001
2018-03-15T12:03:23.696Z,98994
2018-03-15T12:08:28.128Z,98995
2018-03-15T12:13:32.715Z,99004
2018-03-15T12:18:35.791Z,98985
2018-03-15T12:23:38.874Z,98982
2018-03-15T12:28:42.725Z,98987
2018-03-15T12:33:46.577Z,98976
2018-03-15T12:38:50.424Z,98964
2018-03-15T12:43:53.500Z,98960
2018-03-15T12:48:57.936Z,98965
2018-03-15T12:54:02.548Z,98943
2018-03-15T12:59:06.014Z,98926
2018-03-15T13:04:09.090Z,98925
2018-03-15T13:09:12.220Z,98919
2018-03-15T13:14:16.814Z,98902
2018-03-15T13:19:21.044Z,98905
2018-03-15T13:24:25.268Z,98899
2018-03-15T13:29:29.695Z,98884
2018-03-15T13:34:32.779Z,98881
2018-03-15T13:39:37.205Z,98886
2018-03-15T13:44:40.278Z,98881
2018-03-15T13:49:44.754Z,98884
2018-03-15T13:54:47.825Z,98881
2018-03-15T13:59:51.526Z,98892
2018-03-15T14:04:56.127Z,98884
2018-03-15T14:10:00.355Z,98884
2018-03-15T14:15:03.446Z,98868
2018-03-15T14:20:07.672Z,98863
2018-03-15T14:25:11.519Z,98856
2018-03-15T14:30:15.384Z,98859
2018-03-15T14:35:19.830Z,98844
2018-03-15T14:40:24.272Z,98851
2018-03-15T14:45:27.339Z,98852
2018-03-15T14:50:30.430Z,98852
2018-03-15T14:55:34.843Z,98858
2018-03-15T15:00:39.271Z,98858
2018-03-15T15:05:43.495Z,98856
2018-03-15T15:10:47.336Z,98858
2018-03-15T15:15:51.549Z,98865
2018-03-15T15:20:54.652Z,98872
2018-03-15T15:25:58.507Z,98875
2018-03-15T15:31:02.736Z,98874
2018-03-15T15:36:07.170Z,98892
2018-03-15T15:41:10.645Z,98891
2018-03-15T15:46:13.723Z,98887
2018-03-15T15:51:18.154Z,98891
2018-03-15T15:56:21.661Z,98894
2018-03-15T16:01:25.509Z,98896
2018-03-15T16:06:29.019Z,98894
2018-03-15T16:11:32.878Z,98895
2018-03-15T16:16:36.731Z,98903
2018-03-15T16:21:39.820Z,98903
2018-03-15T16:26:43.689Z,98916
2018-03-15T16:31:48.114Z,98915
2018-03-15T16:36:53.513Z,98917
2018-03-15T16:41:57.940Z,98921
2018-03-15T16:47:02.378Z,98920
2018-03-15T16:52:06.836Z,98917
2018-03-15T16:57:09.920Z,98913
2018-03-15T17:02:13.402Z,98910
2018-03-15T17:07:17.831Z,98907
2018-03-15T17:12:20.940Z,98908
2018-03-15T17:17:24.056Z,98910
2018-03-15T17:22:27.154Z,98922
2018-03-15T17:27:30.223Z,98941
2018-03-15T17:32:34.643Z,98952
2018-03-15T17:37:37.748Z,98973
2018-03-15T17:42:42.166Z,98987
2018-03-15T17:52:44.684Z,99012
2018-03-15T17:57:47.785Z,99010
2018-03-15T18:02:50.876Z,99009
2018-03-15T18:07:53.976Z,99029
2018-03-15T18:12:57.071Z,99035
2018-03-15T18:18:01.508Z,99034
2018-03-15T18:23:06.135Z,99045
2018-03-15T18:28:09.629Z,99037
2018-03-15T18:33:14.059Z,99042
2018-03-15T18:38:18.494Z,99048
2018-03-15T18:43:22.329Z,99054
2018-03-15T18:48:26.188Z,99054
2018-03-15T18:53:30.766Z,99045
2018-03-15T18:58:33.836Z,99046
2018-03-15T19:03:37.328Z,99043
2018-03-15T19:08:41.828Z,99050
2018-03-15T19:13:44.900Z,99048
2018-03-15T19:18:49.584Z,99041
2018-03-15T19:23:52.664Z,99044
2018-03-15T19:28:55.788Z,99038
2018-03-15T19:33:58.865Z,99033
2018-03-15T19:39:03.295Z,99034
2018-03-15T19:44:06.366Z,99032
2018-03-15T19:49:09.848Z,99033
2018-03-15T19:54:14.272Z,99042
2018-03-15T19:59:18.492Z,99047
2018-03-15T20:04:21.567Z,99053
2018-03-15T20:09:26.173Z,99044
2018-03-15T20:14:29.643Z,99047
2018-03-15T20:19:33.480Z,99042
2018-03-15T20:24:36.571Z,99049
2018-03-15T20:29:40.774Z,99053
2018-03-15T20:34:45.291Z,99057
2018-03-15T20:39:55.487Z,99053
2018-03-15T20:44:58.600Z,99060
2018-03-15T20:50:02.811Z,99051
2018-03-15T20:55:06.684Z,99051
2018-03-15T21:00:10.919Z,99053
2018-03-15T21:05:14.779Z,99049
2018-03-15T21:10:17.883Z,99047
2018-03-15T21:15:20.959Z,99053
2018-03-15T21:20:24.816Z,99049
2018-03-15T21:25:28.676Z,99053
2018-03-15T21:30:33.284Z,99045
2018-03-15T21:35:37.867Z,99047
2018-03-15T21:40:40.994Z,99048
2018-03-15T21:45:44.818Z,99053
2018-03-15T21:50:48.657Z,99060
2018-03-15T21:55:52.894Z,99060
2018-03-15T22:00:57.491Z,99065
2018-03-15T22:06:00.972Z,99062
2018-03-15T22:11:05.575Z,99066
2018-03-15T22:16:09.044Z,99065
2018-03-15T22:21:12.133Z,99067
2018-03-15T22:26:15.967Z,99068
2018-03-15T22:31:19.451Z,99071
2018-03-15T22:36:23.305Z,99073
2018-03-15T22:41:27.151Z,99072
2018-03-15T22:46:30.232Z,99071
2018-03-15T22:51:33.300Z,99074
2018-03-15T22:56:37.144Z,99079
2018-03-15T23:01:41.749Z,99073
2018-03-15T23:06:44.832Z,99073
2018-03-15T23:11:47.916Z,99073
2018-03-15T23:16:51.388Z,99072
2018-03-15T23:21:54.472Z,99077
2018-03-15T23:26:57.776Z,99081
2018-03-15T23:32:00.864Z,99060
2018-03-15T23:37:03.957Z,99077
2018-03-15T23:42:08.435Z,99070
2018-03-15T23:47:11.537Z,99076
2018-03-15T23:52:15.967Z,99088
2018-03-15T23:57:19.457Z,99094
